createdAt,value
2017-08-05T00:00:38.799Z,18.90
2017-08-05T00:03:06.241Z,18.90
2017-08-05T00:05:33.669Z,18.90
2017-08-05T00:08:01.121Z,18.80
2017-08-05T00:10:28.561Z,18.80
2017-08-05T00:12:56.774Z,18.60
2017-08-05T00:15:24.214Z,18.60
2017-08-05T00:17:51.664Z,18.50
2017-08-05T00:20:19.099Z,18.40
2017-08-05T00:22:46.530Z,18.40
2017-08-05T00:25:13.966Z,18.40
2017-08-05T00:27:41.398Z,18.30
2017-08-05T00:30:08.836Z,18.30
2017-08-05T00:32:37.041Z,18.30
2017-08-05T00:35:04.471Z,18.20
2017-08-05T00:37:31.909Z,18.20
2017-08-05T00:40:00.125Z,18.10
2017-08-05T00:42:27.543Z,18.10
2017-08-05T00:44:55.761Z,18.10
2017-08-05T00:47:23.186Z,18.00
2017-08-05T00:49:50.620Z,18.10
2017-08-05T00:52:18.046Z,18.00
2017-08-05T00:54:45.490Z,18.00
2017-08-05T00:57:12.915Z,18.10
2017-08-05T00:59:40.356Z,18.10
2017-08-05T01:02:07.781Z,18.10
2017-08-05T01:04:35.228Z,18.00
2017-08-05T01:07:02.684Z,17.90
2017-08-05T01:09:30.105Z,17.90
2017-08-05T01:11:57.616Z,17.90
2017-08-05T01:14:25.054Z,17.90
2017-08-05T01:16:52.484Z,17.80
2017-08-05T01:19:19.914Z,17.70
2017-08-05T01:21:47.354Z,17.60
2017-08-05T01:24:14.771Z,17.60
2017-08-05T01:26:42.211Z,17.60
2017-08-05T01:29:09.637Z,17.60
2017-08-05T01:31:37.100Z,17.60
2017-08-05T01:34:04.529Z,17.60
2017-08-05T01:36:31.969Z,17.60
2017-08-05T01:38:59.401Z,17.60
2017-08-05T01:41:26.837Z,17.60
2017-08-05T01:43:54.262Z,17.60
2017-08-05T01:46:21.692Z,17.60
2017-08-05T01:48:49.184Z,17.60
2017-08-05T01:51:17.389Z,17.60
2017-08-05T01:53:44.819Z,17.60
2017-08-05T01:56:12.255Z,17.70
2017-08-05T01:58:39.690Z,17.70
2017-08-05T02:01:07.118Z,17.80
2017-08-05T02:03:34.543Z,17.90
2017-08-05T02:06:02.738Z,17.90
2017-08-05T02:08:30.169Z,17.90
2017-08-05T02:10:57.602Z,17.90
2017-08-05T02:13:25.034Z,17.90
2017-08-05T02:15:52.460Z,18.00
2017-08-05T02:18:19.891Z,18.00
2017-08-05T02:20:47.328Z,18.00
2017-08-05T02:23:14.764Z,18.10
2017-08-05T02:25:42.195Z,18.10
2017-08-05T02:28:09.641Z,18.10
2017-08-05T02:30:37.828Z,18.10
2017-08-05T02:33:05.252Z,18.10
2017-08-05T02:35:33.443Z,18.20
2017-08-05T02:38:00.892Z,18.20
2017-08-05T02:40:29.088Z,18.20
2017-08-05T02:42:56.515Z,18.20
2017-08-05T02:45:23.944Z,18.20
2017-08-05T02:47:51.367Z,18.10
2017-08-05T02:50:18.808Z,18.20
2017-08-05T02:52:46.233Z,18.10
2017-08-05T02:55:13.690Z,18.10
2017-08-05T02:57:41.116Z,18.10
2017-08-05T03:00:08.568Z,18.20
2017-08-05T03:02:35.992Z,18.20
2017-08-05T03:05:03.432Z,18.20
2017-08-05T03:07:30.883Z,18.20
2017-08-05T03:09:58.325Z,18.20
2017-08-05T03:12:25.753Z,18.20
2017-08-05T03:14:53.211Z,18.20
2017-08-05T03:17:20.640Z,18.30
2017-08-05T03:19:48.067Z,18.30
2017-08-05T03:22:15.505Z,18.20
2017-08-05T03:24:42.936Z,18.20
2017-08-05T03:27:10.369Z,18.20
2017-08-05T03:29:37.796Z,18.20
2017-08-05T03:32:05.995Z,18.30
2017-08-05T03:34:33.430Z,18.20
2017-08-05T03:37:01.637Z,18.30
2017-08-05T03:39:29.073Z,18.30
2017-08-05T03:41:56.505Z,18.30
2017-08-05T03:44:23.932Z,18.20
2017-08-05T03:46:51.370Z,18.20
2017-08-05T03:49:18.833Z,18.20
2017-08-05T03:51:48.308Z,18.20
2017-08-05T03:54:15.738Z,18.00
2017-08-05T03:56:43.165Z,17.90
2017-08-05T03:59:10.604Z,17.80
2017-08-05T04:01:38.041Z,17.70
2017-08-05T04:04:05.477Z,17.70
2017-08-05T04:06:33.674Z,17.60
2017-08-05T04:09:01.097Z,17.50
2017-08-05T04:11:29.310Z,17.50
2017-08-05T04:13:56.740Z,17.50
2017-08-05T04:16:24.937Z,17.60
2017-08-05T04:18:52.374Z,17.60
2017-08-05T04:21:19.799Z,17.60
2017-08-05T04:23:47.233Z,17.70
2017-08-05T04:26:14.665Z,17.70
2017-08-05T04:28:46.253Z,17.60
2017-08-05T04:31:13.690Z,17.70
2017-08-05T04:33:41.130Z,17.80
2017-08-05T04:36:08.556Z,17.80
2017-08-05T04:38:36.760Z,17.80
2017-08-05T04:41:04.185Z,17.70
2017-08-05T04:43:32.380Z,17.90
2017-08-05T04:45:59.838Z,17.90
2017-08-05T04:48:27.273Z,18.00
2017-08-05T04:50:54.704Z,18.10
2017-08-05T04:53:22.137Z,18.10
2017-08-05T04:55:49.579Z,18.20
2017-08-05T04:58:17.019Z,18.20
2017-08-05T05:00:44.833Z,18.30
2017-08-05T05:03:12.558Z,18.30
2017-08-05T05:05:39.992Z,18.50
2017-08-05T05:08:08.195Z,18.70
2017-08-05T05:10:38.992Z,18.60
2017-08-05T05:13:07.197Z,18.90
2017-08-05T05:15:34.645Z,18.90
2017-08-05T05:18:02.087Z,18.90
2017-08-05T05:20:35.484Z,19.10
2017-08-05T05:23:13.795Z,19.20
2017-08-05T05:25:41.231Z,19.20
2017-08-05T05:28:08.717Z,19.30
2017-08-05T05:30:36.910Z,19.50
2017-08-05T05:33:04.344Z,19.40
2017-08-05T05:35:31.778Z,19.50
2017-08-05T05:37:59.215Z,19.60
2017-08-05T05:40:26.646Z,19.70
2017-08-05T05:42:54.076Z,19.80
2017-08-05T05:45:21.512Z,19.80
2017-08-05T05:47:48.944Z,19.90
2017-08-05T05:50:16.386Z,20.10
2017-08-05T05:52:44.849Z,20.20
2017-08-05T05:55:12.350Z,20.30
2017-08-05T05:57:39.777Z,20.30
2017-08-05T06:00:07.204Z,20.40
2017-08-05T06:02:34.636Z,20.40
2017-08-05T06:05:03.017Z,20.50
2017-08-05T06:07:31.251Z,20.60
2017-08-05T06:09:58.676Z,20.60
2017-08-05T06:12:26.129Z,20.60
2017-08-05T06:14:53.588Z,20.60
2017-08-05T06:17:21.021Z,20.70
2017-08-05T06:19:48.493Z,20.90
2017-08-05T06:22:15.921Z,21.00
2017-08-05T06:24:43.370Z,21.20
2017-08-05T06:27:10.791Z,21.30
2017-08-05T06:29:38.225Z,21.40
2017-08-05T06:32:05.693Z,21.40
2017-08-05T06:34:33.137Z,21.50
2017-08-05T06:37:00.577Z,21.50
2017-08-05T06:39:28.016Z,21.60
2017-08-05T06:41:55.449Z,21.70
2017-08-05T06:44:22.893Z,21.80
2017-08-05T06:46:50.320Z,22.00
2017-08-05T06:49:17.775Z,22.00
2017-08-05T06:51:45.208Z,22.10
2017-08-05T06:54:12.645Z,22.10
2017-08-05T06:56:40.072Z,22.20
2017-08-05T06:59:07.506Z,22.20
2017-08-05T07:01:34.936Z,22.40
2017-08-05T07:04:02.367Z,22.50
2017-08-05T07:06:29.804Z,22.60
2017-08-05T07:08:57.244Z,22.50
2017-08-05T07:11:24.680Z,22.50
2017-08-05T07:13:52.880Z,22.40
2017-08-05T07:16:20.366Z,22.40
2017-08-05T07:18:47.896Z,22.60
2017-08-05T07:21:15.333Z,22.80
2017-08-05T07:23:42.778Z,23.10
2017-08-05T07:26:10.968Z,23.50
2017-08-05T07:28:38.396Z,23.50
2017-08-05T07:31:05.819Z,23.70
2017-08-05T07:33:33.259Z,23.90
2017-08-05T07:36:00.680Z,23.90
2017-08-05T07:38:28.116Z,23.90
2017-08-05T07:40:55.549Z,23.80
2017-08-05T07:43:23.232Z,23.90
2017-08-05T07:45:50.661Z,24.00
2017-08-05T07:48:18.096Z,24.20
2017-08-05T07:50:45.532Z,24.50
2017-08-05T07:53:12.968Z,24.90
2017-08-05T07:55:40.403Z,25.50
2017-08-05T07:58:07.845Z,25.90
2017-08-05T08:00:35.279Z,26.20
2017-08-05T08:03:02.816Z,26.60
2017-08-05T08:05:30.244Z,26.70
2017-08-05T08:07:57.672Z,26.70
2017-08-05T08:10:25.105Z,26.40
2017-08-05T08:12:52.527Z,26.30
2017-08-05T08:15:19.964Z,25.90
2017-08-05T08:17:47.392Z,25.80
2017-08-05T08:20:14.829Z,25.90
2017-08-05T08:22:42.256Z,26.00
2017-08-05T08:25:09.684Z,26.10
2017-08-05T08:27:37.126Z,26.10
2017-08-05T08:30:04.553Z,26.30
2017-08-05T08:32:32.016Z,26.50
2017-08-05T08:34:59.433Z,26.40
2017-08-05T08:37:27.636Z,26.50
2017-08-05T08:39:55.064Z,26.50
2017-08-05T08:42:22.501Z,26.50
2017-08-05T08:44:49.938Z,26.40
2017-08-05T08:47:17.364Z,26.20
2017-08-05T08:49:44.797Z,25.90
2017-08-05T08:52:12.992Z,25.60
2017-08-05T08:54:41.448Z,25.60
2017-08-05T08:57:09.652Z,26.50
2017-08-05T08:59:37.076Z,26.50
2017-08-05T09:02:04.535Z,27.10
2017-08-05T09:04:31.968Z,27.70
2017-08-05T09:06:59.400Z,28.20
2017-08-05T09:09:26.836Z,28.40
2017-08-05T09:11:55.093Z,28.60
2017-08-05T09:14:22.512Z,28.80
2017-08-05T09:16:50.915Z,28.90
2017-08-05T09:19:18.348Z,28.80
2017-08-05T09:21:46.748Z,28.80
2017-08-05T09:24:14.181Z,28.70
2017-08-05T09:26:41.603Z,28.40
2017-08-05T09:29:09.046Z,28.10
2017-08-05T09:31:36.476Z,27.80
2017-08-05T09:34:03.968Z,27.60
2017-08-05T09:36:31.379Z,27.50
2017-08-05T09:38:58.812Z,27.40
2017-08-05T09:41:26.250Z,27.10
2017-08-05T09:43:53.680Z,26.90
2017-08-05T09:46:21.184Z,26.80
2017-08-05T09:48:48.612Z,26.60
2017-08-05T09:51:16.039Z,26.50
2017-08-05T09:53:47.597Z,26.40
2017-08-05T09:56:15.037Z,26.30
2017-08-05T09:58:42.498Z,26.20
2017-08-05T10:01:09.920Z,26.10
2017-08-05T10:03:37.349Z,26.20
2017-08-05T10:06:04.785Z,26.10
2017-08-05T10:08:32.208Z,26.00
2017-08-05T10:10:59.664Z,26.00
2017-08-05T10:13:27.093Z,26.10
2017-08-05T10:15:54.512Z,26.20
2017-08-05T10:18:21.948Z,26.30
2017-08-05T10:20:49.364Z,26.20
2017-08-05T10:23:16.793Z,26.20
2017-08-05T10:25:44.221Z,26.00
2017-08-05T10:28:12.637Z,25.90
2017-08-05T10:30:40.061Z,25.90
2017-08-05T10:33:07.519Z,25.90
2017-08-05T10:35:35.879Z,26.10
2017-08-05T10:38:03.410Z,26.20
2017-08-05T10:40:30.831Z,26.30
2017-08-05T10:42:58.341Z,26.40
2017-08-05T10:45:25.823Z,26.20
2017-08-05T10:47:53.308Z,26.20
2017-08-05T10:50:20.732Z,26.10
2017-08-05T10:52:48.953Z,25.80
2017-08-05T10:55:16.373Z,25.80
2017-08-05T10:57:43.799Z,25.80
2017-08-05T11:00:11.288Z,25.80
2017-08-05T11:02:38.723Z,25.80
2017-08-05T11:05:06.152Z,25.80
2017-08-05T11:07:33.580Z,25.80
2017-08-05T11:10:01.017Z,25.80
2017-08-05T11:12:28.452Z,25.50
2017-08-05T11:14:55.888Z,25.40
2017-08-05T11:17:23.408Z,25.20
2017-08-05T11:19:50.844Z,25.20
2017-08-05T11:22:19.040Z,24.90
2017-08-05T11:24:46.468Z,24.90
2017-08-05T11:27:14.658Z,24.50
2017-08-05T11:29:42.104Z,24.50
2017-08-05T11:32:10.305Z,23.90
2017-08-05T11:34:38.762Z,23.90
2017-08-05T11:37:06.189Z,23.60
2017-08-05T11:39:33.603Z,23.60
2017-08-05T11:42:01.033Z,23.70
2017-08-05T11:44:28.472Z,23.70
2017-08-05T11:46:55.901Z,23.70
2017-08-05T11:49:23.320Z,23.80
2017-08-05T11:51:50.748Z,23.90
2017-08-05T11:54:18.933Z,24.30
2017-08-05T11:56:47.969Z,24.30
2017-08-05T11:59:15.383Z,24.50
2017-08-05T12:01:42.817Z,24.60
2017-08-05T12:04:10.252Z,24.70
2017-08-05T12:06:37.673Z,24.90
2017-08-05T12:09:05.101Z,25.00
2017-08-05T12:11:32.520Z,24.90
2017-08-05T12:13:59.960Z,25.00
2017-08-05T12:16:27.383Z,25.10
2017-08-05T12:18:54.811Z,25.10
2017-08-05T12:21:22.243Z,25.10
2017-08-05T12:23:49.687Z,25.10
2017-08-05T12:26:17.104Z,25.20
2017-08-05T12:28:44.552Z,25.30
2017-08-05T12:31:12.759Z,25.30
2017-08-05T12:33:40.164Z,25.30
2017-08-05T12:36:07.591Z,25.30
2017-08-05T12:38:35.022Z,25.40
2017-08-05T12:41:02.456Z,25.30
2017-08-05T12:43:29.880Z,25.30
2017-08-05T12:45:57.312Z,25.40
2017-08-05T12:48:24.732Z,25.50
2017-08-05T12:50:52.173Z,25.60
2017-08-05T12:53:20.372Z,25.70
2017-08-05T12:55:47.800Z,25.70
2017-08-05T12:58:20.385Z,25.80
2017-08-05T13:00:47.805Z,25.70
2017-08-05T13:03:15.410Z,25.70
2017-08-05T13:05:42.835Z,25.40
2017-08-05T13:08:10.263Z,25.30
2017-08-05T13:10:37.707Z,24.80
2017-08-05T13:13:05.124Z,24.50
2017-08-05T13:15:33.326Z,23.80
2017-08-05T13:18:00.756Z,23.80
2017-08-05T13:20:28.196Z,23.80
2017-08-05T13:22:55.624Z,23.80
2017-08-05T13:25:23.059Z,23.80
2017-08-05T13:27:50.493Z,23.80
2017-08-05T13:30:17.937Z,24.00
2017-08-05T13:32:45.371Z,24.10
2017-08-05T13:35:12.792Z,24.20
2017-08-05T13:37:41.243Z,24.30
2017-08-05T13:40:08.668Z,24.40
2017-08-05T13:42:36.100Z,24.50
2017-08-05T13:45:03.536Z,24.50
2017-08-05T13:47:30.965Z,24.50
2017-08-05T13:49:59.955Z,24.60
2017-08-05T13:52:28.151Z,24.60
2017-08-05T13:54:55.583Z,24.60
2017-08-05T13:57:23.796Z,24.80
2017-08-05T13:59:51.222Z,24.80
2017-08-05T14:02:18.653Z,24.70
2017-08-05T14:04:46.128Z,24.50
2017-08-05T14:07:13.556Z,24.60
2017-08-05T14:09:41.139Z,24.50
2017-08-05T14:12:08.540Z,24.50
2017-08-05T14:14:35.972Z,24.50
2017-08-05T14:17:03.407Z,24.50
2017-08-05T14:19:30.836Z,24.40
2017-08-05T14:21:58.313Z,24.30
2017-08-05T14:24:25.756Z,24.30
2017-08-05T14:26:53.177Z,24.30
2017-08-05T14:29:20.603Z,24.20
2017-08-05T14:31:48.028Z,23.90
2017-08-05T14:34:15.459Z,23.90
2017-08-05T14:36:42.876Z,23.80
2017-08-05T14:39:10.317Z,23.70
2017-08-05T14:41:37.748Z,23.70
2017-08-05T14:44:05.263Z,23.60
2017-08-05T14:46:36.893Z,23.70
2017-08-05T14:49:04.452Z,23.60
2017-08-05T14:51:32.653Z,23.50
2017-08-05T14:54:00.104Z,23.50
2017-08-05T14:56:27.535Z,23.60
2017-08-05T14:58:55.816Z,23.60
2017-08-05T15:01:23.244Z,23.50
2017-08-05T15:03:50.704Z,23.60
2017-08-05T15:06:18.135Z,23.60
2017-08-05T15:08:45.552Z,23.50
2017-08-05T15:11:13.751Z,23.50
2017-08-05T15:13:41.171Z,23.50
2017-08-05T15:16:09.907Z,23.40
2017-08-05T15:18:37.415Z,23.40
2017-08-05T15:21:05.696Z,23.30
2017-08-05T15:23:33.143Z,23.30
2017-08-05T15:26:01.697Z,23.40
2017-08-05T15:28:29.188Z,23.50
2017-08-05T15:30:56.645Z,23.30
2017-08-05T15:33:24.072Z,23.30
2017-08-05T15:35:51.506Z,23.30
2017-08-05T15:38:18.936Z,23.20
2017-08-05T15:40:46.361Z,23.10
2017-08-05T15:43:13.787Z,23.00
2017-08-05T15:45:41.238Z,23.00
2017-08-05T15:48:08.698Z,22.80
2017-08-05T15:50:36.120Z,22.90
2017-08-05T15:53:03.552Z,22.70
2017-08-05T15:55:30.972Z,22.70
2017-08-05T15:58:03.387Z,22.70
2017-08-05T16:00:31.579Z,22.70
2017-08-05T16:02:59.008Z,22.60
2017-08-05T16:05:26.472Z,22.60
2017-08-05T16:07:54.667Z,22.40
2017-08-05T16:10:22.087Z,22.30
2017-08-05T16:12:49.535Z,22.40
2017-08-05T16:15:16.955Z,22.50
2017-08-05T16:17:44.384Z,22.50
2017-08-05T16:20:12.576Z,22.50
2017-08-05T16:22:40.005Z,22.50
2017-08-05T16:25:07.459Z,22.40
2017-08-05T16:27:34.885Z,22.40
2017-08-05T16:30:02.315Z,22.50
2017-08-05T16:32:29.783Z,22.40
2017-08-05T16:34:57.211Z,22.40
2017-08-05T16:37:24.628Z,22.30
2017-08-05T16:39:52.109Z,22.30
2017-08-05T16:42:19.515Z,22.30
2017-08-05T16:44:46.939Z,22.20
2017-08-05T16:47:16.417Z,22.20
2017-08-05T16:49:43.873Z,22.10
2017-08-05T16:52:11.295Z,22.00
2017-08-05T16:54:38.744Z,22.00
2017-08-05T16:57:06.164Z,22.10
2017-08-05T16:59:33.589Z,22.10
2017-08-05T17:02:01.012Z,22.00
2017-08-05T17:04:28.440Z,22.10
2017-08-05T17:06:55.867Z,22.00
2017-08-05T17:09:23.284Z,22.00
2017-08-05T17:11:50.711Z,21.90
2017-08-05T17:14:18.136Z,21.80
2017-08-05T17:16:45.592Z,21.90
2017-08-05T17:19:13.015Z,21.80
2017-08-05T17:21:40.436Z,21.80
2017-08-05T17:24:07.855Z,21.70
2017-08-05T17:26:35.304Z,21.70
2017-08-05T17:29:02.728Z,21.70
2017-08-05T17:31:30.151Z,21.70
2017-08-05T17:33:57.576Z,21.70
2017-08-05T17:36:24.999Z,21.70
2017-08-05T17:38:52.423Z,21.70
2017-08-05T17:41:19.843Z,21.70
2017-08-05T17:43:47.277Z,21.80
2017-08-05T17:46:14.703Z,21.80
2017-08-05T17:48:42.141Z,21.90
2017-08-05T17:51:09.560Z,21.80
2017-08-05T17:53:36.990Z,21.90
2017-08-05T17:56:04.407Z,21.80
2017-08-05T17:58:32.609Z,21.60
2017-08-05T18:01:00.034Z,21.70
2017-08-05T18:03:27.452Z,21.60
2017-08-05T18:05:54.968Z,21.60
2017-08-05T18:08:22.401Z,21.60
2017-08-05T18:10:49.819Z,21.60
2017-08-05T18:13:17.267Z,21.60
2017-08-05T18:15:44.772Z,21.70
2017-08-05T18:18:12.230Z,21.70
2017-08-05T18:20:39.662Z,21.70
2017-08-05T18:23:07.093Z,21.60
2017-08-05T18:25:34.524Z,21.60
2017-08-05T18:28:01.950Z,21.50
2017-08-05T18:30:29.417Z,21.50
2017-08-05T18:32:56.831Z,21.50
2017-08-05T18:35:24.275Z,21.50
2017-08-05T18:37:51.809Z,21.50
2017-08-05T18:40:19.435Z,21.50
2017-08-05T18:42:46.901Z,21.40
2017-08-05T18:45:14.333Z,21.30
2017-08-05T18:47:41.762Z,21.30
2017-08-05T18:50:09.487Z,21.20
2017-08-05T18:52:37.415Z,21.10
2017-08-05T18:55:08.996Z,21.10
2017-08-05T18:57:36.416Z,21.00
2017-08-05T19:00:03.878Z,21.00
2017-08-05T19:02:31.295Z,21.00
2017-08-05T19:04:58.724Z,21.00
2017-08-05T19:07:26.144Z,21.00
2017-08-05T19:09:54.582Z,20.90
2017-08-05T19:12:22.005Z,20.90
2017-08-05T19:14:49.427Z,20.90
2017-08-05T19:17:16.856Z,20.80
2017-08-05T19:19:44.275Z,20.70
2017-08-05T19:22:11.707Z,20.70
2017-08-05T19:24:39.169Z,20.70
2017-08-05T19:27:06.602Z,20.70
2017-08-05T19:29:34.040Z,20.50
2017-08-05T19:32:01.468Z,20.40
2017-08-05T19:34:28.910Z,20.40
2017-08-05T19:36:56.336Z,20.40
2017-08-05T19:39:23.836Z,20.30
2017-08-05T19:41:51.312Z,20.30
2017-08-05T19:44:19.493Z,20.10
2017-08-05T19:46:46.917Z,20.10
2017-08-05T19:49:14.340Z,20.00
2017-08-05T19:51:41.774Z,20.00
2017-08-05T19:54:09.193Z,20.00
2017-08-05T19:56:36.661Z,19.90
2017-08-05T19:59:07.832Z,19.90
2017-08-05T20:01:36.280Z,19.80
2017-08-05T20:04:04.469Z,19.80
2017-08-05T20:06:32.664Z,19.80
2017-08-05T20:09:00.121Z,19.80
2017-08-05T20:11:27.580Z,19.90
2017-08-05T20:13:55.024Z,19.90
2017-08-05T20:16:22.438Z,19.90
2017-08-05T20:18:49.870Z,20.00
2017-08-05T20:21:17.296Z,20.00
2017-08-05T20:23:44.720Z,20.10
2017-08-05T20:26:12.135Z,20.10
2017-08-05T20:28:39.567Z,20.10
2017-08-05T20:31:07.014Z,20.10
2017-08-05T20:33:34.440Z,20.10
2017-08-05T20:36:02.850Z,20.10
2017-08-05T20:38:31.044Z,20.10
2017-08-05T20:40:58.465Z,20.10
2017-08-05T20:43:25.892Z,20.10
2017-08-05T20:45:53.323Z,20.10
2017-08-05T20:48:20.783Z,20.20
2017-08-05T20:50:48.212Z,20.10
2017-08-05T20:53:15.637Z,20.10
2017-08-05T20:55:43.056Z,20.10
2017-08-05T20:58:10.488Z,20.10
2017-08-05T21:00:37.907Z,20.10
2017-08-05T21:03:05.369Z,20.00
2017-08-05T21:05:32.788Z,20.00
2017-08-05T21:08:00.251Z,20.10
2017-08-05T21:10:27.669Z,20.00
2017-08-05T21:12:55.083Z,20.00
2017-08-05T21:15:22.508Z,20.10
2017-08-05T21:17:49.932Z,20.10
2017-08-05T21:20:17.360Z,20.10
2017-08-05T21:22:45.556Z,20.00
2017-08-05T21:25:13.763Z,19.90
2017-08-05T21:27:41.187Z,19.90
2017-08-05T21:30:08.617Z,19.90
2017-08-05T21:32:36.054Z,19.80
2017-08-05T21:35:03.480Z,19.80
2017-08-05T21:37:30.903Z,19.80
2017-08-05T21:39:58.328Z,19.80
2017-08-05T21:42:25.747Z,19.80
2017-08-05T21:44:53.188Z,19.70
2017-08-05T21:47:20.596Z,19.60
2017-08-05T21:49:48.038Z,19.50
2017-08-05T21:52:15.460Z,19.50
2017-08-05T21:54:42.899Z,19.40
2017-08-05T21:57:11.083Z,19.20
2017-08-05T21:59:38.509Z,19.20
2017-08-05T22:02:05.932Z,18.90
2017-08-05T22:04:33.368Z,18.90
2017-08-05T22:07:00.791Z,18.90
2017-08-05T22:09:28.980Z,18.80
2017-08-05T22:11:56.419Z,18.70
2017-08-05T22:14:23.831Z,18.70
2017-08-05T22:16:51.263Z,18.60
2017-08-05T22:19:18.688Z,18.60
2017-08-05T22:21:46.893Z,18.50
2017-08-05T22:24:14.320Z,18.50
2017-08-05T22:26:41.747Z,18.50
2017-08-05T22:29:09.180Z,18.40
2017-08-05T22:31:36.601Z,18.40
2017-08-05T22:34:04.024Z,18.40
2017-08-05T22:36:31.453Z,18.30
2017-08-05T22:38:58.876Z,18.30
2017-08-05T22:41:26.303Z,18.30
2017-08-05T22:43:53.735Z,18.30
2017-08-05T22:46:21.178Z,18.20
2017-08-05T22:48:48.604Z,18.10
2017-08-05T22:51:16.801Z,18.10
2017-08-05T22:53:44.225Z,18.10
2017-08-05T22:56:12.416Z,18.00
2017-08-05T22:58:39.849Z,18.00
2017-08-05T23:01:08.040Z,17.90
2017-08-05T23:03:35.471Z,17.90
2017-08-05T23:06:02.892Z,17.80
2017-08-05T23:08:30.323Z,17.80
2017-08-05T23:10:57.755Z,17.80
2017-08-05T23:13:26.136Z,17.70
2017-08-05T23:15:54.325Z,17.40
2017-08-05T23:18:21.764Z,17.30
2017-08-05T23:20:49.951Z,17.30
2017-08-05T23:23:17.385Z,17.30
2017-08-05T23:25:44.800Z,17.30
2017-08-05T23:28:12.228Z,17.30
2017-08-05T23:30:39.653Z,17.30
2017-08-05T23:33:07.076Z,17.20
2017-08-05T23:35:34.495Z,17.30
2017-08-05T23:38:01.923Z,17.10
2017-08-05T23:40:30.109Z,17.00
2017-08-05T23:42:58.300Z,16.80
2017-08-05T23:45:25.725Z,16.80
2017-08-05T23:47:53.147Z,16.80
2017-08-05T23:50:20.567Z,16.80
2017-08-05T23:52:47.991Z,16.80
2017-08-05T23:55:15.420Z,16.80
2017-08-05T23:57:42.991Z,16.70
